KABI/ABI METAR and TAF weather

Enter ICAO airport designator
Station Type Date Time Source
KABI METAR 2019/12/06 13:52 UTC NOAA

KABI 061352Z 32009KT 10SM CLR 08/02 A3028 RMK AO2 SLP242 T00780022


Station Type Date Time Source
KABI Decoded METAR 2019/12/06 13:52 UTC NOAA

ABILENE REGIONAL AIRPORT, TX, United States (KABI) 32-25N 099-41W 548M
Dec 06, 2019 - 08:52 AM EST / 2019.12.06 1352 UTC
Wind: from the NW (320 degrees) at 10 MPH (9 KT):0
Visibility: 10 mile(s):0
Sky conditions: clear
Temperature: 46.0 F (7.8 C)
Dew Point: 36.0 F (2.2 C)
Relative Humidity: 67%
Pressure (altimeter): 30.28 in. Hg (1025 hPa)
ob: KABI 061352Z 32009KT 10SM CLR 08/02 A3028 RMK AO2 SLP242 T00780022
cycle: 14

Station Type Date Time Source
KABI TAF 2019/12/06 12:22 UTC NOAA

TAF KABI 061120Z 0612/0712 34014G20KT P6SM SKC
FM061800 35011KT P6SM SKC
FM070100 03005KT P6SM SKC

Example: see airport list